sensor_id;sensor_type;location;lat;lon;timestamp;temperature;humidity
75113;DHT22;63692;47.338;8.520;2023-01-01T06:19:07;14.00;75.50
75113;DHT22;63692;47.338;8.520;2023-01-01T06:28:59;13.90;75.70
75113;DHT22;63692;47.338;8.520;2023-01-01T06:39:04;14.00;75.30
75113;DHT22;63692;47.338;8.520;2023-01-01T06:41:30;13.90;75.50
75113;DHT22;63692;47.338;8.520;2023-01-01T06:43:56;13.90;75.40
75113;DHT22;63692;47.338;8.520;2023-01-01T06:46:28;13.90;75.40
75113;DHT22;63692;47.338;8.520;2023-01-01T06:51:23;13.80;75.60
75113;DHT22;63692;47.338;8.520;2023-01-01T06:56:17;13.70;75.90
75113;DHT22;63692;47.338;8.520;2023-01-01T06:58:43;13.70;75.80
75113;DHT22;63692;47.338;8.520;2023-01-01T07:01:17;13.60;76.40
75113;DHT22;63692;47.338;8.520;2023-01-01T07:03:48;13.50;77.00
75113;DHT22;63692;47.338;8.520;2023-01-01T07:06:14;13.40;77.60
75113;DHT22;63692;47.338;8.520;2023-01-01T07:08:39;13.30;77.40
75113;DHT22;63692;47.338;8.520;2023-01-01T07:11:05;13.10;78.40
75113;DHT22;63692;47.338;8.520;2023-01-01T07:23:58;12.40;81.40
75113;DHT22;63692;47.338;8.520;2023-01-01T07:26:51;12.30;81.60
75113;DHT22;63692;47.338;8.520;2023-01-01T07:29:46;12.20;82.10
75113;DHT22;63692;47.338;8.520;2023-01-01T07:39:34;11.80;84.70
75113;DHT22;63692;47.338;8.520;2023-01-01T07:41:59;11.70;85.10
75113;DHT22;63692;47.338;8.520;2023-01-01T07:44:25;11.80;84.80
75113;DHT22;63692;47.338;8.520;2023-01-01T07:47:01;11.90;84.00
75113;DHT22;63692;47.338;8.520;2023-01-01T07:49:29;12.10;82.90
75113;DHT22;63692;47.338;8.520;2023-01-01T07:51:57;12.30;82.40
75113;DHT22;63692;47.338;8.520;2023-01-01T07:54:23;12.30;82.40
75113;DHT22;63692;47.338;8.520;2023-01-01T07:56:48;12.60;80.50
75113;DHT22;63692;47.338;8.520;2023-01-01T07:59:18;12.70;80.20
75113;DHT22;63692;47.338;8.520;2023-01-01T08:04:16;13.00;79.10
75113;DHT22;63692;47.338;8.520;2023-01-01T08:11:40;13.40;76.90
75113;DHT22;63692;47.338;8.520;2023-01-01T08:21:43;13.70;75.50
75113;DHT22;63692;47.338;8.520;2023-01-01T08:24:09;13.80;75.20
75113;DHT22;63692;47.338;8.520;2023-01-01T08:26:35;13.90;75.00
75113;DHT22;63692;47.338;8.520;2023-01-01T08:29:03;13.90;74.80
75113;DHT22;63692;47.338;8.520;2023-01-01T08:31:29;14.00;74.60
75113;DHT22;63692;47.338;8.520;2023-01-01T08:33:54;14.00;74.60
75113;DHT22;63692;47.338;8.520;2023-01-01T08:36:20;13.90;74.20
75113;DHT22;63692;47.338;8.520;2023-01-01T08:38:46;14.00;75.20
75113;DHT22;63692;47.338;8.520;2023-01-01T08:41:11;14.00;74.30
75113;DHT22;63692;47.338;8.520;2023-01-01T08:43:37;14.00;74.20
75113;DHT22;63692;47.338;8.520;2023-01-01T08:46:02;14.00;74.60
75113;DHT22;63692;47.338;8.520;2023-01-01T08:48:28;14.00;74.70
75113;DHT22;63692;47.338;8.520;2023-01-01T08:50:55;14.00;74.80
75113;DHT22;63692;47.338;8.520;2023-01-01T08:53:21;13.90;74.90
75113;DHT22;63692;47.338;8.520;2023-01-01T08:56:01;13.90;74.80
75113;DHT22;63692;47.338;8.520;2023-01-01T08:58:28;13.80;75.00
75113;DHT22;63692;47.338;8.520;2023-01-01T09:00:54;13.80;75.30
75113;DHT22;63692;47.338;8.520;2023-01-01T09:03:20;13.80;75.50
75113;DHT22;63692;47.338;8.520;2023-01-01T09:05:46;13.80;75.70
75113;DHT22;63692;47.338;8.520;2023-01-01T09:08:12;13.80;75.50
75113;DHT22;63692;47.338;8.520;2023-01-01T09:10:38;13.80;75.30
75113;DHT22;63692;47.338;8.520;2023-01-01T09:13:04;13.80;75.00
75113;DHT22;63692;47.338;8.520;2023-01-01T09:15:30;13.90;75.20
75113;DHT22;63692;47.338;8.520;2023-01-01T09:17:55;13.90;75.10
75113;DHT22;63692;47.338;8.520;2023-01-01T09:20:21;13.90;74.90
75113;DHT22;63692;47.338;8.520;2023-01-01T09:22:47;13.90;74.90
75113;DHT22;63692;47.338;8.520;2023-01-01T09:25:12;13.80;75.70
75113;DHT22;63692;47.338;8.520;2023-01-01T09:27:38;13.90;74.90
75113;DHT22;63692;47.338;8.520;2023-01-01T09:30:04;13.80;75.80
75113;DHT22;63692;47.338;8.520;2023-01-01T09:32:30;13.90;75.80
75113;DHT22;63692;47.338;8.520;2023-01-01T09:34:55;13.80;76.60
75113;DHT22;63692;47.338;8.520;2023-01-01T09:37:22;13.80;76.90
75113;DHT22;63692;47.338;8.520;2023-01-01T09:39:48;13.70;76.00
75113;DHT22;63692;47.338;8.520;2023-01-01T09:45:11;13.70;76.70
75113;DHT22;63692;47.338;8.520;2023-01-01T09:47:43;13.70;76.20
75113;DHT22;63692;47.338;8.520;2023-01-01T09:52:57;13.70;76.30
75113;DHT22;63692;47.338;8.520;2023-01-01T09:55:37;13.80;76.30
75113;DHT22;63692;47.338;8.520;2023-01-01T09:58:09;13.80;76.30
75113;DHT22;63692;47.338;8.520;2023-01-01T10:00:37;13.90;75.70
75113;DHT22;63692;47.338;8.520;2023-01-01T10:08:38;13.90;76.10
75113;DHT22;63692;47.338;8.520;2023-01-01T10:13:43;13.90;76.40
75113;DHT22;63692;47.338;8.520;2023-01-01T10:16:32;13.90;76.90
75113;DHT22;63692;47.338;8.520;2023-01-01T10:21:49;13.80;77.80
75113;DHT22;63692;47.338;8.520;2023-01-01T10:24:37;13.80;77.00
75113;DHT22;63692;47.338;8.520;2023-01-01T10:27:04;13.70;77.30
75113;DHT22;63692;47.338;8.520;2023-01-01T10:29:37;13.60;77.20
75113;DHT22;63692;47.338;8.520;2023-01-01T10:32:16;13.60;76.90
75113;DHT22;63692;47.338;8.520;2023-01-01T10:34:42;13.60;77.10
75113;DHT22;63692;47.338;8.520;2023-01-01T10:37:08;13.60;77.30
75113;DHT22;63692;47.338;8.520;2023-01-01T10:39:34;13.60;77.30
75113;DHT22;63692;47.338;8.520;2023-01-01T10:42:02;13.60;77.40
75113;DHT22;63692;47.338;8.520;2023-01-01T10:44:30;13.60;77.10
75113;DHT22;63692;47.338;8.520;2023-01-01T10:46:57;13.60;77.10
75113;DHT22;63692;47.338;8.520;2023-01-01T10:49:23;13.60;77.30
75113;DHT22;63692;47.338;8.520;2023-01-01T10:51:51;13.70;77.80
75113;DHT22;63692;47.338;8.520;2023-01-01T10:54:35;13.70;78.20
75113;DHT22;63692;47.338;8.520;2023-01-01T10:57:36;13.70;78.30
75113;DHT22;63692;47.338;8.520;2023-01-01T11:03:15;13.80;77.90
75113;DHT22;63692;47.338;8.520;2023-01-01T11:08:32;13.80;77.80
75113;DHT22;63692;47.338;8.520;2023-01-01T11:11:00;13.80;77.60
75113;DHT22;63692;47.338;8.520;2023-01-01T11:13:27;13.90;77.60
75113;DHT22;63692;47.338;8.520;2023-01-01T11:15:53;13.90;77.00
75113;DHT22;63692;47.338;8.520;2023-01-01T11:20:52;13.90;77.00
75113;DHT22;63692;47.338;8.520;2023-01-01T11:24:06;14.00;77.90
75113;DHT22;63692;47.338;8.520;2023-01-01T11:29:39;14.00;77.90
75113;DHT22;63692;47.338;8.520;2023-01-01T11:31:47;14.00;77.40
75113;DHT22;63692;47.338;8.520;2023-01-01T11:39:48;14.00;78.10
75113;DHT22;63692;47.338;8.520;2023-01-01T11:42:19;14.10;77.30
75113;DHT22;63692;47.338;8.520;2023-01-01T11:44:48;14.10;76.70
75113;DHT22;63692;47.338;8.520;2023-01-01T11:47:36;14.10;76.50
75113;DHT22;63692;47.338;8.520;2023-01-01T11:50:31;14.10;77.80
75113;DHT22;63692;47.338;8.520;2023-01-01T11:53:15;14.10;78.90
75113;DHT22;63692;47.338;8.520;2023-01-01T11:55:45;14.20;76.90
75113;DHT22;63692;47.338;8.520;2023-01-01T11:58:33;14.20;79.00
75113;DHT22;63692;47.338;8.520;2023-01-01T12:01:34;14.20;78.50
75113;DHT22;63692;47.338;8.520;2023-01-01T12:09:28;14.20;76.70
75113;DHT22;63692;47.338;8.520;2023-01-01T12:14:45;14.30;77.90
75113;DHT22;63692;47.338;8.520;2023-01-01T12:17:22;14.30;79.70
75113;DHT22;63692;47.338;8.520;2023-01-01T12:20:03;14.30;79.80
75113;DHT22;63692;47.338;8.520;2023-01-01T12:22:33;14.30;78.40
75113;DHT22;63692;47.338;8.520;2023-01-01T12:24:59;14.20;79.70
75113;DHT22;63692;47.338;8.520;2023-01-01T12:30:45;14.20;81.50
75113;DHT22;63692;47.338;8.520;2023-01-01T13:13:00;15.50;74.30
75113;DHT22;63692;47.338;8.520;2023-01-01T14:00:21;17.00;69.10
75113;DHT22;63692;47.338;8.520;2023-01-01T14:02:51;17.10;69.60
75113;DHT22;63692;47.338;8.520;2023-01-01T14:05:36;17.20;68.70
75113;DHT22;63692;47.338;8.520;2023-01-01T14:08:02;17.30;67.50
75113;DHT22;63692;47.338;8.520;2023-01-01T14:10:33;17.60;67.00
75113;DHT22;63692;47.338;8.520;2023-01-01T14:15:39;17.90;64.70
75113;DHT22;63692;47.338;8.520;2023-01-01T14:18:11;18.00;63.70
75113;DHT22;63692;47.338;8.520;2023-01-01T14:20:43;18.60;62.50
75113;DHT22;63692;47.338;8.520;2023-01-01T14:23:19;19.10;60.60
75113;DHT22;63692;47.338;8.520;2023-01-01T14:25:47;19.20;59.70
75113;DHT22;63692;47.338;8.520;2023-01-01T14:28:21;19.60;58.30
75113;DHT22;63692;47.338;8.520;2023-01-01T14:30:48;19.60;57.00
75113;DHT22;63692;47.338;8.520;2023-01-01T14:33:26;19.20;58.50
75113;DHT22;63692;47.338;8.520;2023-01-01T14:35:54;18.70;59.50
75113;DHT22;63692;47.338;8.520;2023-01-01T14:38:34;18.20;61.10
75113;DHT22;63692;47.338;8.520;2023-01-01T14:43:48;17.10;65.00
75113;DHT22;63692;47.338;8.520;2023-01-01T14:46:19;16.30;68.10
75113;DHT22;63692;47.338;8.520;2023-01-01T14:49:00;15.80;70.10
75113;DHT22;63692;47.338;8.520;2023-01-01T14:51:28;15.30;72.20
75113;DHT22;63692;47.338;8.520;2023-01-01T14:54:01;14.90;74.20
75113;DHT22;63692;47.338;8.520;2023-01-01T14:56:48;14.50;76.00
75113;DHT22;63692;47.338;8.520;2023-01-01T15:08:19;14.00;81.00
75113;DHT22;63692;47.338;8.520;2023-01-01T15:10:56;13.70;82.00
75113;DHT22;63692;47.338;8.520;2023-01-01T15:14:01;13.50;82.70
75113;DHT22;63692;47.338;8.520;2023-01-01T15:16:28;13.50;82.90
75113;DHT22;63692;47.338;8.520;2023-01-01T15:18:54;13.50;83.40
75113;DHT22;63692;47.338;8.520;2023-01-01T15:28:53;13.10;84.00
75113;DHT22;63692;47.338;8.520;2023-01-01T15:31:19;13.10;84.20
75113;DHT22;63692;47.338;8.520;2023-01-01T15:33:48;13.10;84.30
75113;DHT22;63692;47.338;8.520;2023-01-01T15:36:14;13.10;83.90
75113;DHT22;63692;47.338;8.520;2023-01-01T15:38:45;13.00;84.20
75113;DHT22;63692;47.338;8.520;2023-01-01T15:44:17;12.80;84.50
75113;DHT22;63692;47.338;8.520;2023-01-01T15:46:47;12.80;85.40
75113;DHT22;63692;47.338;8.520;2023-01-01T15:49:26;12.70;85.80
75113;DHT22;63692;47.338;8.520;2023-01-01T15:51:55;12.60;86.50
75113;DHT22;63692;47.338;8.520;2023-01-01T15:54:23;12.40;86.80
75113;DHT22;63692;47.338;8.520;2023-01-01T15:56:49;12.30;86.90
75113;DHT22;63692;47.338;8.520;2023-01-01T15:59:30;12.30;87.20
75113;DHT22;63692;47.338;8.520;2023-01-01T16:04:26;12.10;87.90
75113;DHT22;63692;47.338;8.520;2023-01-01T16:06:53;12.00;88.10
75113;DHT22;63692;47.338;8.520;2023-01-01T16:09:21;11.90;88.30
75113;DHT22;63692;47.338;8.520;2023-01-01T16:11:54;11.90;88.30
75113;DHT22;63692;47.338;8.520;2023-01-01T16:14:22;11.90;88.60
75113;DHT22;63692;47.338;8.520;2023-01-01T16:16:55;11.90;88.60
75113;DHT22;63692;47.338;8.520;2023-01-01T16:19:25;11.90;88.60
75113;DHT22;63692;47.338;8.520;2023-01-01T16:21:51;11.90;88.70
75113;DHT22;63692;47.338;8.520;2023-01-01T16:24:18;11.90;88.50
75113;DHT22;63692;47.338;8.520;2023-01-01T16:26:44;11.80;88.80
75113;DHT22;63692;47.338;8.520;2023-01-01T16:29:10;11.60;89.20
75113;DHT22;63692;47.338;8.520;2023-01-01T16:31:36;11.60;89.60
75113;DHT22;63692;47.338;8.520;2023-01-01T16:34:02;11.50;90.00
75113;DHT22;63692;47.338;8.520;2023-01-01T16:36:28;11.50;90.00
75113;DHT22;63692;47.338;8.520;2023-01-01T16:38:54;11.30;90.10
75113;DHT22;63692;47.338;8.520;2023-01-01T16:41:20;11.40;90.30
75113;DHT22;63692;47.338;8.520;2023-01-01T16:43:47;11.30;90.30
75113;DHT22;63692;47.338;8.520;2023-01-01T16:46:13;11.30;90.40
75113;DHT22;63692;47.338;8.520;2023-01-01T16:48:39;11.20;90.40
75113;DHT22;63692;47.338;8.520;2023-01-01T16:51:06;11.20;90.40
75113;DHT22;63692;47.338;8.520;2023-01-01T16:53:32;11.30;90.40
75113;DHT22;63692;47.338;8.520;2023-01-01T16:55:57;11.30;90.30
75113;DHT22;63692;47.338;8.520;2023-01-01T16:58:23;11.30;90.30
75113;DHT22;63692;47.338;8.520;2023-01-01T17:00:49;11.20;90.40
75113;DHT22;63692;47.338;8.520;2023-01-01T17:03:15;11.20;90.50
75113;DHT22;63692;47.338;8.520;2023-01-01T17:05:41;11.20;90.50
75113;DHT22;63692;47.338;8.520;2023-01-01T17:08:07;11.20;90.50
75113;DHT22;63692;47.338;8.520;2023-01-01T17:10:33;11.20;90.50
75113;DHT22;63692;47.338;8.520;2023-01-01T17:12:59;11.10;90.50
75113;DHT22;63692;47.338;8.520;2023-01-01T17:15:28;11.10;90.50
75113;DHT22;63692;47.338;8.520;2023-01-01T17:17:54;11.10;90.50
75113;DHT22;63692;47.338;8.520;2023-01-01T17:20:20;11.00;90.40
75113;DHT22;63692;47.338;8.520;2023-01-01T17:22:46;11.00;90.70
75113;DHT22;63692;47.338;8.520;2023-01-01T17:25:12;11.00;90.60
75113;DHT22;63692;47.338;8.520;2023-01-01T17:27:37;10.90;90.60
75113;DHT22;63692;47.338;8.520;2023-01-01T17:30:03;10.70;91.00
75113;DHT22;63692;47.338;8.520;2023-01-01T17:32:29;10.70;91.40
75113;DHT22;63692;47.338;8.520;2023-01-01T17:35:01;10.70;91.30
75113;DHT22;63692;47.338;8.520;2023-01-01T17:37:27;10.70;91.30
75113;DHT22;63692;47.338;8.520;2023-01-01T17:39:53;10.70;91.40
75113;DHT22;63692;47.338;8.520;2023-01-01T17:42:20;10.70;91.30
75113;DHT22;63692;47.338;8.520;2023-01-01T17:44:45;10.70;91.10
75113;DHT22;63692;47.338;8.520;2023-01-01T17:47:11;10.70;91.70
75113;DHT22;63692;47.338;8.520;2023-01-01T17:49:37;10.80;91.80
75113;DHT22;63692;47.338;8.520;2023-01-01T17:52:02;10.90;91.50
75113;DHT22;63692;47.338;8.520;2023-01-01T17:54:28;10.70;91.00
75113;DHT22;63692;47.338;8.520;2023-01-01T18:02:01;10.40;91.20
75113;DHT22;63692;47.338;8.520;2023-01-01T18:04:27;10.30;91.40
75113;DHT22;63692;47.338;8.520;2023-01-01T18:06:53;10.20;91.80
75113;DHT22;63692;47.338;8.520;2023-01-01T18:09:19;10.10;92.00
75113;DHT22;63692;47.338;8.520;2023-01-01T18:11:46;10.10;92.10
75113;DHT22;63692;47.338;8.520;2023-01-01T18:19:06;10.30;91.90
75113;DHT22;63692;47.338;8.520;2023-01-01T18:21:33;10.20;91.70
75113;DHT22;63692;47.338;8.520;2023-01-01T18:24:12;10.10;92.00
75113;DHT22;63692;47.338;8.520;2023-01-01T18:26:38;10.00;92.10
75113;DHT22;63692;47.338;8.520;2023-01-01T18:29:04;9.90;92.40
75113;DHT22;63692;47.338;8.520;2023-01-01T18:31:31;9.70;92.60
75113;DHT22;63692;47.338;8.520;2023-01-01T18:33:58;9.70;92.80
75113;DHT22;63692;47.338;8.520;2023-01-01T18:36:27;9.70;92.90
75113;DHT22;63692;47.338;8.520;2023-01-01T18:39:05;9.60;93.00
75113;DHT22;63692;47.338;8.520;2023-01-01T18:41:51;9.60;93.20
75113;DHT22;63692;47.338;8.520;2023-01-01T18:44:22;9.60;93.20
75113;DHT22;63692;47.338;8.520;2023-01-01T18:49:29;9.40;93.50
75113;DHT22;63692;47.338;8.520;2023-01-01T18:52:04;9.50;93.60
75113;DHT22;63692;47.338;8.520;2023-01-01T18:54:34;9.40;93.50
75113;DHT22;63692;47.338;8.520;2023-01-01T18:57:20;9.40;93.60
75113;DHT22;63692;47.338;8.520;2023-01-01T18:59:46;9.40;93.80
75113;DHT22;63692;47.338;8.520;2023-01-01T19:02:44;9.60;93.60
75113;DHT22;63692;47.338;8.520;2023-01-01T19:07:40;9.60;93.30
75113;DHT22;63692;47.338;8.520;2023-01-01T19:10:12;9.50;93.30
75113;DHT22;63692;47.338;8.520;2023-01-01T19:12:38;9.40;93.40
75113;DHT22;63692;47.338;8.520;2023-01-01T19:15:17;9.30;93.60
75113;DHT22;63692;47.338;8.520;2023-01-01T19:17:43;9.30;93.70
75113;DHT22;63692;47.338;8.520;2023-01-01T19:20:18;9.30;93.80
75113;DHT22;63692;47.338;8.520;2023-01-01T19:22:46;9.20;93.80
75113;DHT22;63692;47.338;8.520;2023-01-01T19:30:42;9.30;93.70
75113;DHT22;63692;47.338;8.520;2023-01-01T19:33:08;9.20;93.90
75113;DHT22;63692;47.338;8.520;2023-01-01T19:35:33;9.20;93.90
75113;DHT22;63692;47.338;8.520;2023-01-01T19:37:59;9.30;93.70
75113;DHT22;63692;47.338;8.520;2023-01-01T19:40:24;9.30;93.70
75113;DHT22;63692;47.338;8.520;2023-01-01T19:42:50;9.30;93.70
75113;DHT22;63692;47.338;8.520;2023-01-01T19:45:16;9.30;93.40
75113;DHT22;63692;47.338;8.520;2023-01-01T19:47:41;9.30;93.40
75113;DHT22;63692;47.338;8.520;2023-01-01T19:50:08;9.40;93.50
75113;DHT22;63692;47.338;8.520;2023-01-01T19:52:34;9.40;93.40
75113;DHT22;63692;47.338;8.520;2023-01-01T19:55:00;9.30;93.40
75113;DHT22;63692;47.338;8.520;2023-01-01T19:57:26;9.10;93.90
75113;DHT22;63692;47.338;8.520;2023-01-01T19:59:52;9.00;94.10
75113;DHT22;63692;47.338;8.520;2023-01-01T20:02:18;9.00;94.30
75113;DHT22;63692;47.338;8.520;2023-01-01T20:04:43;8.90;94.30
75113;DHT22;63692;47.338;8.520;2023-01-01T20:07:09;8.80;94.50
75113;DHT22;63692;47.338;8.520;2023-01-01T20:09:35;8.80;94.50
75113;DHT22;63692;47.338;8.520;2023-01-01T20:12:00;8.90;94.40
75113;DHT22;63692;47.338;8.520;2023-01-01T20:14:26;8.90;94.30
75113;DHT22;63692;47.338;8.520;2023-01-01T20:16:52;8.90;94.20
75113;DHT22;63692;47.338;8.520;2023-01-01T20:21:45;8.90;94.20
75113;DHT22;63692;47.338;8.520;2023-01-01T20:24:29;8.90;94.30
75113;DHT22;63692;47.338;8.520;2023-01-01T20:26:54;8.90;94.30
75113;DHT22;63692;47.338;8.520;2023-01-01T20:29:21;9.00;94.30
75113;DHT22;63692;47.338;8.520;2023-01-01T20:31:48;9.00;94.20
75113;DHT22;63692;47.338;8.520;2023-01-01T20:34:15;9.00;94.10
75113;DHT22;63692;47.338;8.520;2023-01-01T20:36:41;9.00;94.10
75113;DHT22;63692;47.338;8.520;2023-01-01T20:39:25;9.00;94.00
75113;DHT22;63692;47.338;8.520;2023-01-01T20:41:51;8.80;94.20
75113;DHT22;63692;47.338;8.520;2023-01-01T20:44:17;8.80;94.30
75113;DHT22;63692;47.338;8.520;2023-01-01T20:46:42;8.70;94.40
75113;DHT22;63692;47.338;8.520;2023-01-01T20:49:10;8.60;94.70
75113;DHT22;63692;47.338;8.520;2023-01-01T20:51:36;8.60;94.70
75113;DHT22;63692;47.338;8.520;2023-01-01T20:54:02;8.60;94.70
75113;DHT22;63692;47.338;8.520;2023-01-01T20:56:27;8.70;94.60
75113;DHT22;63692;47.338;8.520;2023-01-01T20:58:53;8.70;94.60
75113;DHT22;63692;47.338;8.520;2023-01-01T21:01:20;8.70;94.80
75113;DHT22;63692;47.338;8.520;2023-01-01T21:03:45;8.60;94.90
75113;DHT22;63692;47.338;8.520;2023-01-01T21:06:11;8.60;94.70
75113;DHT22;63692;47.338;8.520;2023-01-01T21:08:37;8.40;94.70
75113;DHT22;63692;47.338;8.520;2023-01-01T21:11:02;8.30;95.00
75113;DHT22;63692;47.338;8.520;2023-01-01T21:13:28;8.30;95.10
75113;DHT22;63692;47.338;8.520;2023-01-01T21:15:54;8.20;95.40
75113;DHT22;63692;47.338;8.520;2023-01-01T21:18:21;8.30;95.50
75113;DHT22;63692;47.338;8.520;2023-01-01T21:20:47;8.30;95.40
75113;DHT22;63692;47.338;8.520;2023-01-01T21:23:25;8.30;95.30
75113;DHT22;63692;47.338;8.520;2023-01-01T21:25:54;8.30;95.30
75113;DHT22;63692;47.338;8.520;2023-01-01T21:28:20;8.20;95.30
75113;DHT22;63692;47.338;8.520;2023-01-01T21:30:56;8.10;95.40
75113;DHT22;63692;47.338;8.520;2023-01-01T21:33:30;8.10;95.40
75113;DHT22;63692;47.338;8.520;2023-01-01T21:35:56;8.20;95.30
75113;DHT22;63692;47.338;8.520;2023-01-01T21:38:26;8.10;95.40
75113;DHT22;63692;47.338;8.520;2023-01-01T21:40:54;8.00;95.50
75113;DHT22;63692;47.338;8.520;2023-01-01T21:43:43;8.10;95.60
75113;DHT22;63692;47.338;8.520;2023-01-01T21:48:51;8.10;95.50
75113;DHT22;63692;47.338;8.520;2023-01-01T21:51:28;8.10;95.50
75113;DHT22;63692;47.338;8.520;2023-01-01T21:56:40;8.10;95.80
